Time;durP1;ratioP1;P1;durP2;ratioP2;P2;SDS_P1;SDS_P2;PMS_P1;PMS_P2;Temp;Humidity;BMP_temperature;BMP_pressure;BME280_temperature;BME280_humidity;BME280_pressure;Samples;Min_cycle;Max_cycle;Signal;HPM_P1;HPM_P2
2023/12/17 00:01:41;;;;;;;11.70;5.80;;;;;;;;;;4980472;28;20043;-76
2023/12/17 00:04:07;;;;;;;13.73;6.78;;;;;;;;;;4981313;28;20680;-75
2023/12/17 00:06:37;;;;;;;16.40;7.15;;;;;;;;;;4981816;28;20125;-75
2023/12/17 00:09:03;;;;;;;13.30;6.60;;;;;;;;;;4981597;28;20050;-75
2023/12/17 00:11:29;;;;;;;17.75;6.53;;;;;;;;;;4977142;28;20051;-76
2023/12/17 00:13:55;;;;;;;17.90;6.97;;;;;;;;;;4983473;28;20053;-76
2023/12/17 00:16:22;;;;;;;15.40;5.72;;;;;;;;;;4984984;28;20743;-77
2023/12/17 00:18:48;;;;;;;9.43;6.50;;;;;;;;;;4985064;28;20050;-76
2023/12/17 00:21:14;;;;;;;14.32;6.47;;;;;;;;;;4984896;28;20049;-75
2023/12/17 00:23:40;;;;;;;11.02;6.10;;;;;;;;;;4985213;28;20046;-75
2023/12/17 00:26:06;;;;;;;17.98;6.35;;;;;;;;;;4984441;28;20677;-76
2023/12/17 00:28:32;;;;;;;15.25;6.10;;;;;;;;;;4984883;28;20093;-78
2023/12/17 00:30:58;;;;;;;11.27;6.18;;;;;;;;;;4984574;28;20732;-76
2023/12/17 00:33:24;;;;;;;14.05;6.63;;;;;;;;;;4984525;28;20037;-76
2023/12/17 00:35:50;;;;;;;10.85;5.82;;;;;;;;;;4984555;28;20046;-76
2023/12/17 00:38:16;;;;;;;18.38;6.43;;;;;;;;;;4984209;28;20073;-76
2023/12/17 00:40:42;;;;;;;15.77;5.75;;;;;;;;;;4984683;28;20057;-78
2023/12/17 00:43:08;;;;;;;17.67;6.65;;;;;;;;;;4988501;28;20056;-76
2023/12/17 00:45:34;;;;;;;11.52;6.40;;;;;;;;;;4988482;28;20543;-76
2023/12/17 00:48:00;;;;;;;14.63;6.07;;;;;;;;;;4988381;28;20188;-76
2023/12/17 00:50:26;;;;;;;15.55;6.00;;;;;;;;;;4988160;28;20082;-77
2023/12/17 00:52:52;;;;;;;11.75;6.22;;;;;;;;;;4987937;28;20038;-76
2023/12/17 00:55:18;;;;;;;15.30;6.13;;;;;;;;;;4987729;28;20077;-76
2023/12/17 00:57:44;;;;;;;10.85;5.28;;;;;;;;;;4988202;28;20192;-76
2023/12/17 01:00:10;;;;;;;16.63;5.60;;;10.10;99.90;;;;;;4987995;28;20491;-75
2023/12/17 01:02:36;;;;;;;10.50;5.25;;;;;;;;;;4989004;28;20513;-77
2023/12/17 01:05:02;;;;;;;14.90;5.60;;;;;;;;;;4988337;28;20050;-76
2023/12/17 01:07:28;;;;;;;14.90;5.53;;;;;;;;;;4988199;28;20049;-76
2023/12/17 01:09:54;;;;;;;12.82;6.05;;;;;;;;;;4988077;28;20049;-75
2023/12/17 01:12:20;;;;;;;20.17;6.75;;;;;;;;;;4972400;28;20042;-76
2023/12/17 01:14:46;;;;;;;13.60;5.85;;;;;;;;;;4988072;28;20061;-76
2023/12/17 01:17:13;;;;;;;21.65;6.13;;;;;;;;;;4988153;28;20064;-75
2023/12/17 01:19:39;;;;;;;12.27;6.18;;;;;;;;;;4988683;28;20558;-77
2023/12/17 01:22:05;;;;;;;14.93;6.60;;;;;;;;;;4988544;28;20053;-76
2023/12/17 01:24:32;;;;;;;16.00;6.07;;;;;;;;;;4971698;28;20050;-76
2023/12/17 01:26:58;;;;;;;11.68;6.45;;;;;;;;;;4988387;28;20124;-77
2023/12/17 01:29:24;;;;;;;12.48;5.78;;;;;;;;;;4987984;28;20038;-77
2023/12/17 01:31:50;;;;;;;13.80;5.63;;;;;;;;;;4987913;28;20045;-75
2023/12/17 01:34:16;;;;;;;11.43;5.60;;;;;;;;;;4988144;28;20096;-76
2023/12/17 01:36:42;;;;;;;10.85;5.30;;;;;;;;;;4988049;28;20042;-76
2023/12/17 01:39:09;;;;;;;12.18;6.35;;;;;;;;;;4988032;28;20072;-76
2023/12/17 01:41:35;;;;;;;13.40;5.90;;;;;;;;;;4988113;28;20050;-75
2023/12/17 01:44:01;;;;;;;12.23;5.50;;;;;;;;;;4987890;28;20127;-76
2023/12/17 01:46:28;;;;;;;14.82;5.63;;;;;;;;;;4987813;28;20103;-76
2023/12/17 01:48:54;;;;;;;11.25;6.10;;;;;;;;;;4987936;28;20504;-76
2023/12/17 01:51:20;;;;;;;14.05;5.78;;;;;;;;;;4988031;28;20046;-76
2023/12/17 01:53:46;;;;;;;14.63;6.15;;;;;;;;;;4987404;28;20045;-76
2023/12/17 01:56:13;;;;;;;15.48;6.47;;;;;;;;;;4987294;28;20220;-76
2023/12/17 01:58:39;;;;;;;16.75;6.55;;;;;;;;;;4971231;28;20543;-76
2023/12/17 02:01:05;;;;;;;20.85;7.53;;;;;;;;;;4987402;28;20049;-77
2023/12/17 02:03:31;;;;;;;20.00;7.07;;;;;;;;;;4987341;28;20544;-76
2023/12/17 02:05:57;;;;;;;15.43;6.80;;;;;;;;;;4987164;28;20046;-76
2023/12/17 02:08:23;;;;;;;14.05;6.57;;;;;;;;;;4986944;28;20038;-77
2023/12/17 02:10:49;;;;;;;13.38;6.50;;;;;;;;;;4970572;28;20113;-77
2023/12/17 02:13:15;;;;;;;15.13;6.00;;;;;;;;;;4986697;28;20049;-76
2023/12/17 02:15:41;;;;;;;18.02;7.38;;;;;;;;;;4986657;28;20050;-76
2023/12/17 02:18:07;;;;;;;14.38;7.15;;;;;;;;;;4986759;28;20044;-76
2023/12/17 02:20:36;;;;;;;15.07;7.05;;;;;;;;;;4987136;28;20045;-77
2023/12/17 02:23:03;;;;;;;13.15;8.20;;;;;;;;;;4986836;28;20085;-76
2023/12/17 02:25:29;;;;;;;13.00;7.10;;;;;;;;;;4987002;28;20400;-76
2023/12/17 02:27:58;;;;;;;17.20;7.60;;;;;;;;;;5005416;28;20764;-76
2023/12/17 02:30:25;;;;;;;13.68;7.40;;;;;;;;;;4987162;28;20041;-77
2023/12/17 02:32:51;;;;;;;18.60;7.80;;;;;;;;;;4986647;28;20452;-76
2023/12/17 02:35:17;;;;;;;21.83;8.48;;;9.90;99.90;;;;;;4986350;28;20401;-76
2023/12/17 02:37:43;;;;;;;15.98;8.57;;;;;;;;;;4986442;28;20042;-77
2023/12/17 02:40:09;;;;;;;16.73;7.05;;;;;;;;;;4985942;28;20052;-76
2023/12/17 02:42:35;;;;;;;13.00;6.75;;;;;;;;;;4986363;28;20049;-76
2023/12/17 02:45:01;;;;;;;13.88;6.60;;;;;;;;;;4986109;28;20516;-76
2023/12/17 02:47:27;;;;;;;18.88;7.00;;;;;;;;;;4986600;28;20076;-76
2023/12/17 02:49:53;;;;;;;26.40;7.53;;;;;;;;;;4985816;28;20046;-75
2023/12/17 02:52:19;;;;;;;17.13;8.25;;;;;;;;;;4985392;28;20061;-76
2023/12/17 02:54:47;;;;;;;13.85;6.97;;;;;;;;;;4985731;28;20049;-77
2023/12/17 02:57:13;;;;;;;19.77;6.90;;;;;;;;;;4986149;28;20167;-75
2023/12/17 02:59:40;;;;;;;12.68;6.55;;;;;;;;;;4985944;28;20501;-76
2023/12/17 03:02:06;;;;;;;18.05;7.28;;;;;;;;;;4985905;28;20159;-77
2023/12/17 03:04:32;;;;;;;18.20;7.30;;;;;;;;;;4980092;28;20769;-76
2023/12/17 03:06:58;;;;;;;12.57;7.18;;;;;;;;;;4985481;28;20048;-76
2023/12/17 03:09:24;;;;;;;12.68;7.85;;;;;;;;;;4986085;28;20081;-75
2023/12/17 03:11:50;;;;;;;17.58;7.70;;;;;;;;;;4985167;28;20038;-75
2023/12/17 03:14:16;;;;;;;16.92;6.97;;;;;;;;;;4985389;28;20061;-75
2023/12/17 03:16:42;;;;;;;21.25;7.38;;;;;;;;;;4985959;28;20063;-75
2023/12/17 03:19:09;;;;;;;14.38;6.55;;;;;;;;;;4985535;28;20050;-75
2023/12/17 03:21:35;;;;;;;15.18;6.70;;;;;;;;;;5004139;28;20046;-77
2023/12/17 03:24:01;;;;;;;21.00;8.13;;;;;;;;;;4986081;28;20046;-77
2023/12/17 03:26:26;;;;;;;17.13;6.43;;;;;;;;;;5003839;28;20042;-76
2023/12/17 03:28:53;;;;;;;14.90;7.35;;;;;;;;;;4985269;28;20056;-77
2023/12/17 03:31:19;;;;;;;24.73;7.65;;;;;;;;;;4985984;28;20136;-76
2023/12/17 03:33:46;;;;;;;13.55;6.95;;;;;;;;;;4986681;28;20053;-75
2023/12/17 03:36:16;;;;;;;11.82;6.35;;;;;;;;;;4985704;28;20509;-76
2023/12/17 03:38:42;;;;;;;8.93;5.43;;;;;;;;;;4985774;28;20509;-75
2023/12/17 03:41:19;;;;;;;17.60;6.47;;;;;;;;;;4985730;28;20034;-75
2023/12/17 03:43:45;;;;;;;12.68;5.90;;;;;;;;;;4983465;28;20134;-76
2023/12/17 03:46:11;;;;;;;13.57;5.88;;;;;;;;;;4985033;28;20095;-76
2023/12/17 03:48:37;;;;;;;15.65;6.88;;;;;;;;;;4985356;28;20038;-75
2023/12/17 03:51:04;;;;;;;13.77;6.38;;;10.10;99.90;;;;;;4985165;28;20050;-76
2023/12/17 03:53:30;;;;;;;11.80;5.95;;;;;;;;;;4985120;28;20049;-75
2023/12/17 03:55:56;;;;;;;13.32;6.07;;;;;;;;;;4985145;28;20087;-75
2023/12/17 03:58:22;;;;;;;13.65;6.25;;;;;;;;;;4983312;28;20038;-77
2023/12/17 04:00:48;;;;;;;13.40;5.15;;;;;;;;;;4985117;28;20046;-75
2023/12/17 04:03:14;;;;;;;14.35;6.18;;;;;;;;;;4984690;28;20539;-75
2023/12/17 04:05:40;;;;;;;12.25;5.53;;;;;;;;;;4985101;28;20140;-76
2023/12/17 04:08:07;;;;;;;13.10;5.60;;;;;;;;;;4985113;28;20073;-76
2023/12/17 04:10:33;;;;;;;17.92;6.13;;;;;;;;;;4984676;28;20220;-76
2023/12/17 04:12:59;;;;;;;11.68;6.25;;;;;;;;;;4984942;28;20034;-76
2023/12/17 04:15:25;;;;;;;12.90;6.10;;;;;;;;;;4984366;28;20065;-75
2023/12/17 04:17:51;;;;;;;15.82;7.15;;;;;;;;;;4988573;28;20042;-77
2023/12/17 04:20:18;;;;;;;15.38;7.30;;;;;;;;;;4988684;28;20099;-76
2023/12/17 04:22:44;;;;;;;10.77;6.20;;;;;;;;;;4988903;28;20168;-76
2023/12/17 04:25:10;;;;;;;16.45;6.78;;;;;;;;;;4988755;28;20054;-75
2023/12/17 04:27:35;;;;;;;11.85;7.00;;;10.00;99.90;;;;;;4988937;28;20052;-75
2023/12/17 04:30:01;;;;;;;15.23;8.98;;;;;;;;;;4988803;28;20082;-76
2023/12/17 04:32:27;;;;;;;18.63;7.47;;;;;;;;;;4988139;28;20145;-76
2023/12/17 04:34:55;;;;;;;11.93;7.00;;;;;;;;;;4988295;28;20048;-76
2023/12/17 04:37:24;;;;;;;15.65;7.57;;;;;;;;;;4988005;28;20053;-76
2023/12/17 04:39:50;;;;;;;14.15;7.07;;;;;;;;;;4988417;28;20053;-75
2023/12/17 04:42:17;;;;;;;19.45;8.93;;;;;;;;;;4988642;28;20046;-77
2023/12/17 04:44:43;;;;;;;9.18;7.03;;;;;;;;;;4988693;28;20334;-75
2023/12/17 04:47:09;;;;;;;16.75;7.07;;;;;;;;;;4988880;28;20057;-75
2023/12/17 04:49:36;;;;;;;23.20;7.47;;;;;;;;;;4988538;28;20050;-76
2023/12/17 04:52:02;;;;;;;11.88;7.40;;;;;;;;;;4988510;28;20042;-75
2023/12/17 04:54:28;;;;;;;13.30;7.10;;;;;;;;;;4988739;28;20072;-76
2023/12/17 04:56:55;;;;;;;16.30;7.60;;;;;;;;;;4989146;28;20928;-75
2023/12/17 04:59:25;;;;;;;13.80;7.30;;;;;;;;;;4988955;28;20061;-75
2023/12/17 05:01:51;;;;;;;18.52;7.40;;;;;;;;;;4989073;28;20504;-76
2023/12/17 05:04:17;;;;;;;14.43;6.72;;;;;;;;;;4969582;28;20832;-76
2023/12/17 05:06:43;;;;;;;15.10;6.35;;;;;;;;;;4986610;28;20064;-76
2023/12/17 05:09:10;;;;;;;10.98;6.82;;;;;;;;;;4988743;28;20050;-75
2023/12/17 05:11:36;;;;;;;12.98;5.53;;;;;;;;;;4988913;28;20515;-75
2023/12/17 05:14:02;;;;;;;11.70;5.95;;;;;;;;;;4988330;28;20675;-75
2023/12/17 05:16:28;;;;;;;13.77;6.88;;;;;;;;;;4988433;28;20053;-77
2023/12/17 05:18:54;;;;;;;10.85;5.22;;;;;;;;;;4988327;28;20148;-76
2023/12/17 05:21:20;;;;;;;13.50;5.68;;;;;;;;;;4988642;28;20057;-75
2023/12/17 05:23:46;;;;;;;9.05;5.18;;;;;;;;;;4987967;28;20041;-75
2023/12/17 05:26:12;;;;;;;13.18;5.40;;;;;;;;;;4987603;28;20052;-75
2023/12/17 05:28:41;;;;;;;11.00;6.15;;;;;;;;;;4987427;28;20129;-76
2023/12/17 05:31:07;;;;;;;17.58;7.55;;;;;;;;;;4987856;28;20054;-75
2023/12/17 05:33:33;;;;;;;16.63;6.13;;;;;;;;;;4987869;28;20787;-76
2023/12/17 05:35:59;;;;;;;13.30;6.05;;;;;;;;;;4987745;28;20512;-76
2023/12/17 05:38:28;;;;;;;12.02;5.63;;;;;;;;;;4987307;28;20042;-76
2023/12/17 05:40:55;;;;;;;13.70;6.40;;;;;;;;;;4987494;28;20053;-76
2023/12/17 05:43:21;;;;;;;13.45;5.32;;;;;;;;;;5005215;28;20044;-76
2023/12/17 05:45:47;;;;;;;11.77;6.43;;;;;;;;;;4982410;28;20041;-75
2023/12/17 05:48:14;;;;;;;14.73;6.28;;;;;;;;;;4987865;28;20450;-75
2023/12/17 05:50:40;;;;;;;11.57;5.82;;;;;;;;;;4987388;28;20049;-76
2023/12/17 05:53:06;;;;;;;9.18;6.40;;;;;;;;;;4987997;28;20416;-77
2023/12/17 05:55:32;;;;;;;12.63;6.03;;;;;;;;;;5005075;28;20037;-75
2023/12/17 05:57:58;;;;;;;8.30;5.28;;;;;;;;;;4987618;28;20038;-77
2023/12/17 06:00:24;;;;;;;9.18;5.05;;;;;;;;;;4987812;28;20045;-77
2023/12/17 06:02:50;;;;;;;10.85;5.00;;;;;;;;;;4987617;28;20536;-76
2023/12/17 06:05:16;;;;;;;10.00;4.50;;;;;;;;;;4987716;28;20054;-76
2023/12/17 06:07:43;;;;;;;10.90;4.30;;;;;;;;;;4987294;28;20516;-76
2023/12/17 06:10:09;;;;;;;11.63;4.68;;;;;;;;;;4987103;28;20053;-76
2023/12/17 06:12:35;;;;;;;8.43;4.25;;;;;;;;;;4970906;28;20044;-76
2023/12/17 06:15:01;;;;;;;10.10;4.03;;;;;;;;;;4986899;28;20050;-75
2023/12/17 06:17:27;;;;;;;10.73;4.15;;;;;;;;;;4987016;28;20523;-76
2023/12/17 06:19:53;;;;;;;9.75;4.43;;;;;;;;;;4987411;28;20050;-76
2023/12/17 06:22:19;;;;;;;9.35;4.32;;;;;;;;;;4987100;28;20045;-76
2023/12/17 06:24:45;;;;;;;14.10;4.55;;;;;;;;;;4986858;28;20048;-77
2023/12/17 06:27:18;;;;;;;14.30;4.90;;;;;;;;;;4987082;28;20049;-78
2023/12/17 06:29:46;;;;;;;12.60;4.40;;;;;;;;;;4986824;28;20072;-77
2023/12/17 06:32:12;;;;;;;9.15;4.32;;;;;;;;;;4986901;28;20153;-75
2023/12/17 06:34:38;;;;;;;12.50;4.40;;;;;;;;;;4986503;28;20100;-75
2023/12/17 06:37:04;;;;;;;14.98;4.20;;;;;;;;;;4986747;28;20046;-75
2023/12/17 06:39:30;;;;;;;15.75;4.80;;;;;;;;;;4985935;28;20061;-75
2023/12/17 06:41:56;;;;;;;14.18;5.13;;;;;;;;;;4986520;28;20068;-76
2023/12/17 06:44:24;;;;;;;13.13;5.47;;;;;;;;;;4986064;28;20049;-75
2023/12/17 06:46:50;;;;;;;12.02;4.80;;;;;;;;;;4986555;28;20050;-76
2023/12/17 06:49:16;;;;;;;12.13;6.25;;;;;;;;;;5003836;28;20057;-76
2023/12/17 06:51:42;;;;;;;13.90;5.70;;;;;;;;;;5003897;28;20042;-76
2023/12/17 06:54:09;;;;;;;14.02;5.18;;;;;;;;;;4985947;28;20042;-75
2023/12/17 06:56:35;;;;;;;13.00;5.72;;;;;;;;;;4985795;28;20149;-76
2023/12/17 06:59:01;;;;;;;11.00;5.65;;;;;;;;;;4970344;28;20627;-76
2023/12/17 07:01:27;;;;;;;13.50;5.40;;;;;;;;;;4985996;28;20045;-75
2023/12/17 07:03:53;;;;;;;13.00;5.22;;;;;;;;;;5003666;28;20053;-76
2023/12/17 07:06:19;;;;;;;12.25;5.90;;;;;;;;;;4986091;28;20561;-75
2023/12/17 07:08:48;;;;;;;18.45;5.18;;;;;;;;;;4985562;28;20112;-77
2023/12/17 07:11:14;;;;;;;13.20;5.97;;;;;;;;;;4985675;28;20049;-75
2023/12/17 07:13:40;;;;;;;10.00;5.97;;;;;;;;;;4985402;28;20097;-76
2023/12/17 07:16:06;;;;;;;13.70;6.40;;;;;;;;;;4985155;28;20192;-76
2023/12/17 07:18:32;;;;;;;12.45;5.80;;;;;;;;;;4985686;28;20054;-75
2023/12/17 07:20:58;;;;;;;15.02;6.63;;;;;;;;;;4985979;28;20048;-75
2023/12/17 07:23:27;;;;;;;17.08;6.68;;;;;;;;;;5002593;28;20063;-75
2023/12/17 07:25:53;;;;;;;15.85;7.18;;;;;;;;;;4984918;28;20104;-75
2023/12/17 07:28:19;;;;;;;16.13;6.50;;;;;;;;;;4985916;28;20132;-76
2023/12/17 07:30:45;;;;;;;11.77;7.00;;;;;;;;;;4985475;28;20512;-75
2023/12/17 07:33:11;;;;;;;16.45;6.95;;;;;;;;;;4985908;28;20041;-75
2023/12/17 07:35:37;;;;;;;9.35;6.57;;;;;;;;;;4984856;28;20568;-76
2023/12/17 07:38:03;;;;;;;13.02;6.75;;;;;;;;;;4985056;28;20050;-75
2023/12/17 07:40:29;;;;;;;12.93;7.22;;;;;;;;;;4985818;28;20484;-75
2023/12/17 07:42:55;;;;;;;19.60;8.88;;;;;;;;;;4984970;28;20052;-75
2023/12/17 07:45:21;;;;;;;19.92;7.72;;;;;;;;;;4985128;28;20053;-76
2023/12/17 07:47:47;;;;;;;17.30;8.13;;;;;;;;;;4982574;28;20185;-76
2023/12/17 07:50:13;;;;;;;13.45;7.85;;;;;;;;;;4984628;28;20041;-76
2023/12/17 07:52:40;;;;;;;12.73;8.18;;;;;;;;;;4985377;28;20321;-75
2023/12/17 07:55:06;;;;;;;15.30;8.57;;;;;;;;;;4984697;28;20042;-76
2023/12/17 07:57:33;;;;;;;13.25;8.45;;;;;;;;;;4984802;28;20512;-75
2023/12/17 07:59:59;;;;;;;17.08;9.82;;;;;;;;;;4984578;28;20189;-76
2023/12/17 08:02:26;;;;;;;15.35;9.15;;;;;;;;;;4968925;28;20464;-75
2023/12/17 08:04:52;;;;;;;15.73;9.80;;;;;;;;;;4974371;28;20050;-76
2023/12/17 08:07:18;;;;;;;19.73;10.40;;;;;;;;;;4984961;28;20038;-75
2023/12/17 08:09:44;;;;;;;16.83;10.20;;;;;;;;;;4984428;28;20056;-75
2023/12/17 08:12:11;;;;;;;23.77;9.60;;;;;;;;;;4984599;28;20042;-76
2023/12/17 08:14:37;;;;;;;20.55;10.35;;;;;;;;;;4984359;28;20053;-75
2023/12/17 08:17:03;;;;;;;19.25;9.32;;;;;;;;;;4984333;28;20054;-75
2023/12/17 08:19:29;;;;;;;21.33;10.57;;;;;;;;;;4984372;28;20053;-76
2023/12/17 08:21:55;;;;;;;17.98;10.38;;;;;;;;;;4984906;28;20688;-75
2023/12/17 08:24:21;;;;;;;18.10;9.70;;;;;;;;;;4984723;28;20707;-77
2023/12/17 08:26:47;;;;;;;18.63;9.80;;;;;;;;;;4984563;28;20045;-75
2023/12/17 08:29:13;;;;;;;22.92;10.77;;;;;;;;;;4968371;28;20052;-77
2023/12/17 08:31:44;;;;;;;25.27;10.45;;;;;;;;;;4984720;28;20038;-75
2023/12/17 08:34:10;;;;;;;17.55;10.15;;;;;;;;;;4980955;28;20253;-77
2023/12/17 08:36:36;;;;;;;23.75;10.90;;;;;;;;;;4984573;28;20042;-76
2023/12/17 08:39:04;;;;;;;24.63;10.63;;;;;;;;;;4985146;28;20049;-76
2023/12/17 08:41:33;;;;;;;22.90;10.52;;;;;;;;;;4984738;28;20077;-76
2023/12/17 08:43:59;;;;;;;21.38;10.55;;;;;;;;;;4984609;28;20044;-77
2023/12/17 08:46:25;;;;;;;22.65;11.13;;;;;;;;;;4984766;28;20041;-75
2023/12/17 08:48:51;;;;;;;25.63;11.00;;;;;;;;;;4984696;28;20518;-76
2023/12/17 08:51:17;;;;;;;27.88;11.57;;;;;;;;;;4984139;28;20042;-76
2023/12/17 08:53:43;;;;;;;28.95;11.63;;;;;;;;;;4984539;28;20042;-75
2023/12/17 08:56:09;;;;;;;29.65;11.02;;;;;;;;;;4984288;28;20092;-76
2023/12/17 08:58:35;;;;;;;24.42;11.35;;;;;;;;;;4983077;28;20048;-76
2023/12/17 09:01:02;;;;;;;21.63;10.63;;;;;;;;;;4980794;28;20092;-76
2023/12/17 09:03:28;;;;;;;24.17;10.05;;;;;;;;;;4979836;28;20124;-76
2023/12/17 09:05:54;;;;;;;27.42;10.52;;;;;;;;;;4986620;28;20073;-72
2023/12/17 09:08:21;;;;;;;20.90;10.95;;;;;;;;;;4986328;28;20085;-73
2023/12/17 09:10:47;;;;;;;28.35;12.00;;;;;;;;;;4990467;28;20042;-73
2023/12/17 09:13:13;;;;;;;25.05;10.82;;;;;;;;;;5008619;28;20056;-73
2023/12/17 09:15:39;;;;;;;24.98;11.45;;;;;;;;;;4990079;28;20058;-73
2023/12/17 09:18:05;;;;;;;22.42;12.00;;;;;;;;;;4990026;28;20053;-73
2023/12/17 09:20:32;;;;;;;23.02;10.68;;;;;;;;;;4989895;28;20100;-75
2023/12/17 09:22:58;;;;;;;25.42;11.38;;;;;;;;;;4989219;28;20060;-72
2023/12/17 09:25:24;;;;;;;24.73;12.13;;;;;;;;;;4988125;28;20076;-74
2023/12/17 09:27:51;;;;;;;23.05;10.75;;;;;;;;;;4986671;28;20054;-73
2023/12/17 09:30:18;;;;;;;26.35;12.10;;;;;;;;;;4990571;28;20084;-74
2023/12/17 09:32:44;;;;;;;24.38;12.20;;;;;;;;;;5007835;28;20048;-74
2023/12/17 09:35:11;;;;;;;25.15;13.75;;;;;;;;;;4990260;28;20058;-73
2023/12/17 09:37:40;;;;;;;26.33;13.77;;;;;;;;;;4989793;28;20154;-74
2023/12/17 09:40:06;;;;;;;27.92;14.73;;;;;;;;;;4990069;28;20054;-73
2023/12/17 09:42:32;;;;;;;32.42;15.65;;;;;;;;;;4989703;28;20085;-73
2023/12/17 09:44:59;;;;;;;31.83;14.15;;;;;;;;;;4988779;28;20088;-72
2023/12/17 09:47:25;;;;;;;32.97;16.33;;;;;;;;;;4988101;28;20038;-72
2023/12/17 09:49:51;;;;;;;29.63;16.38;;;;;;;;;;5005228;28;20045;-71
2023/12/17 09:52:18;;;;;;;30.02;15.02;;;;;;;;;;4987302;28;20044;-72
2023/12/17 09:54:47;;;;;;;30.50;15.68;;;;;;;;;;4987528;28;20045;-72
2023/12/17 09:57:13;;;;;;;28.83;15.20;;;;;;;;;;4987162;28;20054;-73
2023/12/17 09:59:42;;;;;;;29.42;14.75;;;;;;;;;;4987225;28;20251;-73
2023/12/17 10:02:12;;;;;;;25.40;15.32;;;;;;;;;;5004035;28;20061;-72
2023/12/17 10:04:38;;;;;;;32.70;16.67;;;;;;;;;;4970231;28;20038;-72
2023/12/17 10:07:05;;;;;;;31.98;16.08;;;;;;;;;;4987078;28;20045;-72
2023/12/17 10:09:35;;;;;;;34.33;17.80;;;;;;;;;;4987238;28;20045;-71
2023/12/17 10:12:01;;;;;;;37.75;19.13;;;;;;;;;;4987335;28;20069;-72
2023/12/17 10:14:30;;;;;;;44.00;20.15;;;;;;;;;;4986306;28;20145;-72
2023/12/17 10:16:57;;;;;;;43.53;22.38;;;;;;;;;;5003267;28;20049;-72
2023/12/17 10:19:23;;;;;;;43.50;22.60;;;;;;;;;;4987138;28;20648;-73
2023/12/17 10:21:49;;;;;;;43.35;21.40;;;;;;;;;;4986440;28;20156;-72
2023/12/17 10:24:15;;;;;;;40.28;20.52;;;;;;;;;;4986491;28;20041;-72
2023/12/17 10:26:45;;;;;;;39.78;21.45;;;;;;;;;;4986805;28;20136;-74
2023/12/17 10:29:15;;;;;;;43.92;22.85;;;;;;;;;;4986093;28;20062;-74
2023/12/17 10:31:42;;;;;;;40.25;21.13;;;;;;;;;;4986464;28;20051;-74
2023/12/17 10:34:15;;;;;;;40.13;21.83;;;;;;;;;;4986426;28;20552;-74
2023/12/17 10:36:42;;;;;;;44.83;22.15;;;;;;;;;;4982306;28;20050;-74
2023/12/17 10:39:09;;;;;;;33.90;19.42;;;;;;;;;;4986409;28;20081;-74
2023/12/17 10:41:36;;;;;;;34.20;19.55;;;;;;;;;;4982319;28;20052;-74
2023/12/17 10:44:03;;;;;;;39.20;19.90;;;;;;;;;;4999030;28;20046;-74
2023/12/17 10:46:29;;;;;;;36.72;21.05;;;;;;;;;;4985837;28;20493;-74
2023/12/17 10:48:55;;;;;;;34.08;18.80;;;;;;;;;;4986401;28;20049;-73
2023/12/17 10:51:23;;;;;;;28.13;17.92;;;;;;;;;;4986269;28;20050;-74
2023/12/17 10:53:49;;;;;;;38.42;19.70;;;;;;;;;;4985938;28;20038;-74
2023/12/17 10:56:16;;;;;;;29.20;17.60;;;9.90;99.90;;;;;;4985870;28;20100;-74
2023/12/17 10:58:43;;;;;;;32.70;17.95;;;;;;;;;;4981142;28;20462;-73
2023/12/17 11:01:09;;;;;;;26.33;17.10;;;;;;;;;;4986213;28;20056;-73
2023/12/17 11:03:36;;;;;;;31.40;17.33;;;9.90;99.90;;;;;;4986002;28;20057;-73
2023/12/17 11:06:04;;;;;;;27.13;17.17;;;;;;;;;;4981042;28;20057;-73
2023/12/17 11:08:30;;;;;;;29.27;15.63;;;;;;;;;;4966380;28;20747;-73
2023/12/17 11:10:57;;;;;;;23.75;15.52;;;;;;;;;;4986288;28;20042;-73
2023/12/17 11:13:24;;;;;;;29.92;15.63;;;;;;;;;;4984921;28;20053;-73
2023/12/17 11:15:50;;;;;;;26.63;15.05;;;;;;;;;;4985462;28;20050;-73
2023/12/17 11:18:16;;;;;;;28.23;15.30;;;;;;;;;;4985715;28;20066;-73
2023/12/17 11:20:45;;;;;;;24.27;14.57;;;;;;;;;;4986161;28;20081;-73
2023/12/17 11:23:15;;;;;;;28.77;13.65;;;;;;;;;;5003499;28;20596;-73
2023/12/17 11:25:41;;;;;;;28.60;14.52;;;;;;;;;;4998468;28;20548;-72
2023/12/17 11:28:08;;;;;;;25.73;15.38;;;;;;;;;;5003474;28;20048;-73
2023/12/17 11:30:36;;;;;;;22.77;12.65;;;;;;;;;;4983021;28;20057;-73
2023/12/17 11:33:02;;;;;;;23.73;13.73;;;;;;;;;;4979903;28;20117;-73
2023/12/17 11:35:29;;;;;;;24.27;14.05;;;;;;;;;;4983506;28;20045;-73
2023/12/17 11:37:55;;;;;;;28.67;14.40;;;;;;;;;;4983223;28;20037;-73
2023/12/17 11:40:22;;;;;;;22.73;13.68;;;;;;;;;;4981681;28;20046;-73
2023/12/17 11:43:01;;;;;;;24.95;13.50;;;;;;;;;;4982145;28;20148;-72
2023/12/17 11:45:31;;;;;;;22.48;13.43;;;;;;;;;;4982755;28;20050;-73
2023/12/17 11:48:03;;;;;;;23.08;14.27;;;;;;;;;;4984726;28;20060;-73
2023/12/17 11:50:39;;;;;;;31.60;14.38;;;;;;;;;;5001509;28;20809;-73
2023/12/17 11:53:05;;;;;;;22.38;13.68;;;;;;;;;;5001933;28;20095;-72
2023/12/17 11:55:40;;;;;;;26.50;14.13;;;;;;;;;;4984041;28;20489;-74
2023/12/17 11:58:06;;;;;;;22.10;13.90;;;;;;;;;;4985764;28;20584;-72
2023/12/17 12:00:32;;;;;;;24.10;13.23;;;;;;;;;;5002263;28;20129;-74
2023/12/17 12:02:58;;;;;;;24.70;14.45;;;;;;;;;;4968980;28;20041;-73
2023/12/17 12:05:24;;;;;;;24.17;13.50;;;;;;;;;;4982671;28;20038;-73
2023/12/17 12:07:54;;;;;;;25.05;14.90;;;;;;;;;;4986388;28;20619;-72
2023/12/17 12:10:20;;;;;;;24.15;14.40;;;;;;;;;;4982943;28;20049;-73
2023/12/17 12:12:46;;;;;;;25.73;15.15;;;;;;;;;;4983367;28;20048;-73
2023/12/17 12:15:12;;;;;;;27.30;14.18;;;;;;;;;;4985273;28;20045;-73
2023/12/17 12:17:39;;;;;;;22.55;13.20;;;;;;;;;;4984096;28;20073;-74
2023/12/17 12:20:06;;;;;;;27.08;15.25;;;;;;;;;;4985695;28;20050;-73
2023/12/17 12:22:32;;;;;;;30.67;14.70;;;;;;;;;;4985546;28;20409;-73
2023/12/17 12:24:58;;;;;;;24.83;14.50;;;9.50;99.90;;;;;;5003991;28;20042;-73
2023/12/17 12:27:24;;;;;;;24.90;13.75;;;;;;;;;;4985648;28;20076;-73
2023/12/17 12:29:52;;;;;;;25.92;16.08;;;;;;;;;;4986322;28;20067;-73
2023/12/17 12:32:31;;;;;;;25.05;14.95;;;;;;;;;;4986327;28;20080;-73
2023/12/17 12:35:00;;;;;;;27.08;16.08;;;;;;;;;;4985874;28;20046;-74
2023/12/17 12:37:32;;;;;;;32.60;16.38;;;;;;;;;;4986398;28;20490;-74
2023/12/17 12:39:58;;;;;;;26.40;15.43;;;;;;;;;;4987585;28;20076;-73
2023/12/17 12:42:24;;;;;;;30.65;18.10;;;;;;;;;;4989713;28;20053;-73
2023/12/17 12:44:50;;;;;;;32.40;18.52;;;;;;;;;;5007112;28;20048;-74
2023/12/17 12:47:17;;;;;;;29.90;16.45;;;;;;;;;;4990128;28;20057;-74
2023/12/17 12:49:43;;;;;;;32.92;17.38;;;;;;;;;;4989644;28;20078;-74
2023/12/17 12:52:10;;;;;;;31.20;17.73;;;;;;;;;;4989759;28;20049;-73
2023/12/17 12:54:36;;;;;;;33.97;18.65;;;;;;;;;;4990114;28;20135;-73
2023/12/17 12:57:02;;;;;;;33.22;19.52;;;;;;;;;;4989906;28;20073;-73
2023/12/17 12:59:27;;;;;;;33.20;17.90;;;9.80;99.90;;;;;;4990802;28;20068;-73
2023/12/17 13:01:54;;;;;;;33.58;18.75;;;;;;;;;;4987448;28;20481;-74
2023/12/17 13:04:20;;;;;;;36.00;18.25;;;;;;;;;;5008401;28;20053;-74
2023/12/17 13:06:47;;;;;;;34.60;19.48;;;;;;;;;;4972954;28;20048;-73
2023/12/17 13:09:13;;;;;;;35.92;21.08;;;;;;;;;;4990861;28;20113;-74
2023/12/17 13:11:38;;;;;;;39.50;20.17;;;9.90;99.90;;;;;;4989743;28;20504;-74
2023/12/17 13:14:05;;;;;;;32.45;17.50;;;;;;;;;;4989488;28;20049;-74
2023/12/17 13:16:31;;;;;;;35.80;19.50;;;;;;;;;;5007191;28;20412;-73
2023/12/17 13:18:57;;;;;;;32.75;19.02;;;;;;;;;;4985012;28;20137;-73
2023/12/17 13:21:23;;;;;;;34.25;19.00;;;;;;;;;;4989727;28;20136;-73
2023/12/17 13:23:50;;;;;;;26.65;16.90;;;9.80;99.90;;;;;;4988891;28;20453;-73
2023/12/17 13:26:18;;;;;;;32.72;19.33;;;9.80;99.90;;;;;;4989609;28;20126;-73
2023/12/17 13:28:44;;;;;;;31.52;17.92;;;10.10;99.90;;;;;;4985156;28;20061;-73
2023/12/17 13:31:10;;;;;;;31.85;19.38;;;;;;;;;;5006693;28;20497;-73
2023/12/17 13:33:36;;;;;;;33.20;18.23;;;;;;;;;;4988899;28;20041;-73
2023/12/17 13:36:05;;;;;;;33.60;17.95;;;;;;;;;;4967548;28;20075;-73
2023/12/17 13:38:31;;;;;;;32.70;19.25;;;;;;;;;;4988630;28;20049;-73
2023/12/17 13:40:57;;;;;;;32.60;18.08;;;;;;;;;;4988255;28;20068;-73
2023/12/17 13:43:23;;;;;;;36.85;17.55;;;;;;;;;;4987509;28;20050;-73
2023/12/17 13:45:50;;;;;;;35.13;17.55;;;;;;;;;;5004927;28;20375;-73
2023/12/17 13:48:16;;;;;;;28.77;16.00;;;;;;;;;;4987747;28;20072;-72
2023/12/17 13:50:45;;;;;;;26.95;16.30;;;;;;;;;;4988581;28;20104;-73
2023/12/17 13:53:14;;;;;;;30.15;16.73;;;;;;;;;;4988478;28;20042;-73
2023/12/17 13:55:40;;;;;;;33.40;16.27;;;;;;;;;;4987999;28;20085;-73
2023/12/17 13:58:06;;;;;;;30.52;16.35;;;;;;;;;;4987888;28;20045;-73
2023/12/17 14:00:34;;;;;;;24.60;15.82;;;;;;;;;;4988374;28;20108;-73
2023/12/17 14:03:00;;;;;;;26.77;14.68;;;;;;;;;;4987460;28;20611;-73
2023/12/17 14:05:29;;;;;;;26.38;14.75;;;;;;;;;;4986617;28;20046;-73
2023/12/17 14:07:56;;;;;;;23.55;14.00;;;;;;;;;;4987716;28;20419;-73
2023/12/17 14:10:22;;;;;;;29.67;14.68;;;;;;;;;;5005764;28;20089;-73
2023/12/17 14:12:48;;;;;;;26.58;14.73;;;;;;;;;;4987668;28;20361;-73
2023/12/17 14:15:14;;;;;;;28.05;14.70;;;;;;;;;;4987136;28;20054;-72
2023/12/17 14:17:40;;;;;;;25.75;14.18;;;;;;;;;;4987763;28;20046;-73